Flight Track Log - Related Links

Times and Time Zones

All times are in EST time to prevent confusion due to time zone crossing. See the AFL150 flight status page for this flight to view local times or setup timezone preferences in your user account.


Time Position Orientation Groundspeed Altitude Reporting Facility
EST Latitude Longitude Course Direction KTS MPH feet Rate Location/Type
Fri 05:52:00 AM 56.0490 37.1053 307° West  Level Estimated
Fri 05:53:00 AM 56.1169 36.9410 307° West  Level Estimated
Fri 05:54:00 AM 56.1845 36.7761 306° West  Level Estimated
Fri 05:55:00 AM 56.2519 36.6106 306° West  Level Estimated
Fri 05:56:00 AM 56.3191 36.4445 306° West  Level Estimated
Fri 05:57:00 AM 56.3861 36.2778 306° West  Level Estimated
Fri 05:58:00 AM 56.4529 36.1106 306° West  Level Estimated
Fri 05:59:00 AM 56.5194 35.9427 306° West  Level Estimated
Fri 06:00:00 AM 56.5857 35.7743 306° West  Level Estimated
Fri 06:01:00 AM 56.6517 35.6053 305° West  Level Estimated
Fri 06:02:00 AM 56.7176 35.4357 305° West  Level Estimated
Fri 06:03:00 AM 56.7832 35.2655 305° West  Level Estimated
Fri 06:04:00 AM 56.8486 35.0947 305° West  Level Estimated
Fri 06:05:00 AM 56.9137 34.9233 305° West  Level Estimated
Fri 06:06:00 AM 56.9786 34.7513 305° West  Level Estimated
Fri 06:07:00 AM 57.0433 34.5788 305° West  Level Estimated
Fri 06:08:00 AM 57.1077 34.4056 304° West  Level Estimated
Fri 06:09:00 AM 57.1719 34.2318 304° West  Level Estimated
Fri 06:10:00 AM 57.2358 34.0574 304° West  Level Estimated
Fri 06:11:00 AM 57.2995 33.8824 304° West  Level Estimated
Fri 06:12:00 AM 57.3630 33.7068 304° West  Level Estimated
Fri 06:13:00 AM 57.4262 33.5305 304° West  Level Estimated
Fri 06:14:00 AM 57.4884 33.3560 304° West  Level Estimated
Fri 06:15:00 AM 57.5503 33.1809 303° West  Level Estimated
Fri 06:16:00 AM 57.6119 33.0052 303° West  Level Estimated
Fri 06:17:00 AM 57.6734 32.8289 303° West  Level Estimated
Fri 06:18:00 AM 57.7345 32.6521 303° West  Level Estimated
Fri 06:19:00 AM 57.7955 32.4746 303° West  Level Estimated
Fri 06:20:00 AM 57.8562 32.2965 303° West  Level Estimated
Fri 06:21:00 AM 57.9166 32.1178 303° West  Level Estimated
Fri 06:22:00 AM 57.9768 31.9385 302° West  Level Estimated
Fri 06:23:00 AM 58.0367 31.7586 302° West  Level Estimated
Fri 06:24:00 AM 58.0964 31.5781 302° West  Level Estimated
Fri 06:25:00 AM 58.1558 31.3970 302° West  Level Estimated
Fri 06:26:00 AM 58.2149 31.2153 302° West  Level Estimated
Fri 06:27:00 AM 58.2738 31.0330 302° West  Level Estimated
Fri 06:28:00 AM 58.3325 30.8501 301° West  Level Estimated
Fri 06:29:00 AM 58.3908 30.6666 301° West  Level Estimated
Fri 06:30:00 AM 58.4489 30.4825 301° West  Level Estimated
Fri 06:31:00 AM 58.5068 30.2978 301° West  Level Estimated
Fri 06:32:00 AM 58.5644 30.1124 301° West  Level Estimated
Fri 06:33:00 AM 58.6217 29.9265 301° West  Level Estimated
Fri 06:34:00 AM 58.6787 29.7399 301° West  Level Estimated
Fri 06:35:00 AM 58.7355 29.5527 300° West  Level Estimated
Fri 06:36:00 AM 58.7920 29.3650 300° West  Level Estimated
Fri 06:37:00 AM 58.8482 29.1766 300° West  Level Estimated
Fri 06:38:00 AM 58.9042 28.9876 300° West  Level Estimated
Fri 06:39:00 AM 58.9599 28.7980 300° West  Level Estimated
Fri 06:40:00 AM 59.0153 28.6077 300° West  Level Estimated
Fri 06:41:00 AM 59.0704 28.4169 299° West  Level Estimated
Fri 06:42:00 AM 59.1252 28.2254 299° West  Level Estimated
Fri 06:43:00 AM 59.1798 28.0334 299° West  Level Estimated
Fri 06:44:00 AM 59.2340 27.8407 299° West  Level Estimated
Fri 06:45:00 AM 59.2880 27.6474 299° West  Level Estimated
Fri 06:46:00 AM 59.3417 27.4535 299° West  Level Estimated
Fri 06:47:00 AM 59.3951 27.2590 298° West  Level Estimated
Fri 06:48:00 AM 59.4482 27.0639 298° West  Level Estimated
Fri 06:49:00 AM 59.5011 26.8682 298° West  Level Estimated
Fri 06:50:00 AM 59.5536 26.6718 298° West  Level Estimated
Fri 06:51:00 AM 59.6058 26.4748 298° West  Level Estimated
Fri 06:52:00 AM 59.6578 26.2773 298° West  Level Estimated
Fri 06:53:00 AM 59.7094 26.0791 297° West  Level Estimated
Fri 06:54:00 AM 59.7608 25.8803 297° West  Level Estimated
Fri 06:55:00 AM 59.8118 25.6809 297° West  Level Estimated
Fri 06:56:00 AM 59.8625 25.4809 297° West  Level Estimated
Fri 06:57:00 AM 59.9130 25.2803 297° West  Level Estimated
Fri 06:58:00 AM 59.9631 25.0790 297° West  Level Estimated
Fri 06:59:00 AM 60.0129 24.8772 296° West  Level Estimated
Fri 07:00:00 AM 60.0624 24.6747 296° West  Level Estimated
Fri 07:01:00 AM 60.1116 24.4717 296° West  Level Estimated
Fri 07:02:00 AM 60.1605 24.2680 296° West  Level Estimated
Fri 07:03:00 AM 60.2091 24.0638 296° West  Level Estimated
Fri 07:04:00 AM 60.2574 23.8589 295° West  Level Estimated
Fri 07:05:00 AM 60.3053 23.6534 295° West  Level Estimated
Fri 07:06:00 AM 60.3530 23.4474 295° West  Level Estimated
Fri 07:07:00 AM 60.4003 23.2407 295° West  Level Estimated
Fri 07:08:00 AM 60.4473 23.0334 295° West  Level Estimated
Fri 07:09:00 AM 60.4939 22.8256 295° West  Level Estimated
Fri 07:10:00 AM 60.5403 22.6171 294° West  Level Estimated
Fri 07:11:00 AM 60.5863 22.4080 294° West  Level Estimated
Fri 07:12:00 AM 60.6320 22.1984 294° West  Level Estimated
Fri 07:13:00 AM 60.6773 21.9881 294° West  Level Estimated
Fri 07:14:00 AM 60.7224 21.7773 294° West  Level Estimated
Fri 07:15:00 AM 60.7671 21.5658 293° West  Level Estimated
Fri 07:16:00 AM 60.8114 21.3538 293° West  Level Estimated
Fri 07:17:00 AM 60.8554 21.1412 293° West  Level Estimated
Fri 07:18:00 AM 60.8991 20.9280 293° West  Level Estimated
Fri 07:19:00 AM 60.9425 20.7143 293° West  Level Estimated
Fri 07:20:00 AM 60.9855 20.4999 293° West  Level Estimated
Fri 07:21:00 AM 61.0282 20.2850 292° West  Level Estimated
Fri 07:22:00 AM 61.0705 20.0695 292° West  Level Estimated
Fri 07:23:00 AM 61.1125 19.8534 292° West  Level Estimated
Fri 07:24:00 AM 61.1541 19.6367 292° West  Level Estimated
Fri 07:25:00 AM 61.1954 19.4195 292° West  Level Estimated
Fri 07:26:00 AM 61.2364 19.2017 291° West  Level Estimated
Fri 07:27:00 AM 61.2770 18.9833 291° West  Level Estimated
Fri 07:28:00 AM 61.3172 18.7644 291° West  Level Estimated
Fri 07:29:00 AM 61.3571 18.5449 291° West  Level Estimated
Fri 07:30:00 AM 61.3967 18.3249 291° West  Level Estimated
Fri 07:31:00 AM 61.4358 18.1043 290° West  Level Estimated
Fri 07:32:00 AM 61.4747 17.8831 290° West  Level Estimated
Fri 07:33:00 AM 61.5131 17.6614 290° West  Level Estimated
Fri 07:34:00 AM 61.5512 17.4392 290° West  Level Estimated
Fri 07:35:00 AM 61.5890 17.2164 290° West  Level Estimated
Fri 07:36:00 AM 61.6264 16.9931 289° West  Level Estimated
Fri 07:37:00 AM 61.6634 16.7692 289° West  Level Estimated
Fri 07:38:00 AM 61.7000 16.5448 289° West  Level Estimated
Fri 07:39:00 AM 61.7363 16.3199 289° West  Level Estimated
Fri 07:40:00 AM 61.7722 16.0944 289° West  Level Estimated
Fri 07:41:00 AM 61.8077 15.8684 289° West  Level Estimated
Fri 07:42:00 AM 61.8429 15.6419 288° West  Level Estimated
Fri 07:43:00 AM 61.8777 15.4149 288° West  Level Estimated
Fri 07:44:00 AM 61.9121 15.1874 288° West  Level Estimated
Fri 07:45:00 AM 61.9462 14.9593 288° West  Level Estimated
Fri 07:46:00 AM 61.9798 14.7308 288° West  Level Estimated
Fri 07:47:00 AM 62.0131 14.5017 287° West  Level Estimated
Fri 07:48:00 AM 62.0460 14.2722 287° West  Level Estimated
Fri 07:49:00 AM 62.0785 14.0421 287° West  Level Estimated
Fri 07:50:00 AM 62.1107 13.8116 287° West  Level Estimated
Fri 07:51:00 AM 62.1424 13.5805 286° West  Level Estimated
Fri 07:52:00 AM 62.1738 13.3490 286° West  Level Estimated
Fri 07:53:00 AM 62.2048 13.1170 286° West  Level Estimated
Fri 07:54:00 AM 62.2354 12.8846 286° West  Level Estimated
Fri 07:55:00 AM 62.2656 12.6516 286° West  Level Estimated
Fri 07:56:00 AM 62.2954 12.4183 285° West  Level Estimated
Fri 07:57:00 AM 62.3249 12.1844 285° West  Level Estimated
Fri 07:58:00 AM 62.3539 11.9501 285° West  Level Estimated
Fri 07:59:00 AM 62.3825 11.7153 285° West  Level Estimated
Fri 08:00:00 AM 62.4108 11.4801 285° West  Level Estimated
Fri 08:01:00 AM 62.4386 11.2445 284° West  Level Estimated
Fri 08:02:00 AM 62.4661 11.0084 284° West  Level Estimated
Fri 08:03:00 AM 62.4931 10.7719 284° West  Level Estimated
Fri 08:04:00 AM 62.5197 10.5350 284° West  Level Estimated
Fri 08:05:00 AM 62.5460 10.2976 284° West  Level Estimated
Fri 08:06:00 AM 62.5718 10.0598 283° West  Level Estimated
Fri 08:07:00 AM 62.5973 9.8216 283° West  Level Estimated
Fri 08:08:00 AM 62.6223 9.5830 283° West  Level Estimated
Fri 08:09:00 AM 62.6469 9.3440 283° West  Level Estimated
Fri 08:10:00 AM 62.6711 9.1047 283° West  Level Estimated
Fri 08:11:00 AM 62.6950 8.8649 282° West  Level Estimated
Fri 08:12:00 AM 62.7183 8.6247 282° West  Level Estimated
Fri 08:13:00 AM 62.7413 8.3842 282° West  Level Estimated
Fri 08:14:00 AM 62.7639 8.1433 282° West  Level Estimated
Fri 08:15:00 AM 62.7861 7.9020 281° West  Level Estimated
Fri 08:16:00 AM 62.8078 7.6604 281° West  Level Estimated
Fri 08:17:00 AM 62.8292 7.4184 281° West  Level Estimated
Fri 08:18:00 AM 62.8501 7.1761 281° West  Level Estimated
Fri 08:19:00 AM 62.8706 6.9334 281° West  Level Estimated
Fri 08:20:00 AM 62.8907 6.6904 280° West  Level Estimated
Fri 08:21:00 AM 62.9103 6.4471 280° West  Level Estimated
Fri 08:22:00 AM 62.9296 6.2034 280° West  Level Estimated
Fri 08:23:00 AM 62.9484 5.9594 280° West  Level Estimated
Fri 08:24:00 AM 62.9668 5.7151 280° West  Level Estimated
Fri 08:25:00 AM 62.9848 5.4706 279° West  Level Estimated
Fri 08:26:00 AM 63.0023 5.2257 279° West  Level Estimated
Fri 08:27:00 AM 63.0195 4.9805 279° West  Level Estimated
Fri 08:28:00 AM 63.0362 4.7350 279° West  Level Estimated
Fri 08:29:00 AM 63.0525 4.4893 278° West  Level Estimated
Fri 08:30:00 AM 63.0684 4.2432 278° West  Level Estimated
Fri 08:31:00 AM 63.0838 3.9970 278° West  Level Estimated
Fri 08:32:00 AM 63.0988 3.7504 278° West  Level Estimated
Fri 08:33:00 AM 63.1134 3.5036 278° West  Level Estimated
Fri 08:34:00 AM 63.1275 3.2566 277° West  Level Estimated
Fri 08:35:00 AM 63.1412 3.0093 277° West  Level Estimated
Fri 08:36:00 AM 63.1545 2.7618 277° West  Level Estimated
Fri 08:37:00 AM 63.1674 2.5141 277° West  Level Estimated
Fri 08:38:00 AM 63.1798 2.2661 276° West  Level Estimated
Fri 08:39:00 AM 63.1918 2.0180 276° West  Level Estimated
Fri 08:40:00 AM 63.2033 1.7696 276° West  Level Estimated
Fri 08:41:00 AM 63.2145 1.5211 276° West  Level Estimated
Fri 08:42:00 AM 63.2252 1.2724 276° West  Level Estimated
Fri 08:43:00 AM 63.2354 1.0234 275° West  Level Estimated
Fri 08:44:00 AM 63.2452 0.7743 275° West  Level Estimated
Fri 08:45:00 AM 63.2546 0.5251 275° West  Level Estimated
Fri 08:46:00 AM 63.2636 0.2757 275° West  Level Estimated
Fri 08:47:00 AM 63.2721 0.0261 274° West  Level Estimated
Fri 08:48:00 AM 63.2802 -0.2236 274° West  Level Estimated
Fri 08:49:00 AM 63.2878 -0.4734 274° West  Level Estimated
Fri 08:50:00 AM 63.2950 -0.7234 274° West  Level Estimated
Fri 08:51:00 AM 63.3018 -0.9735 274° West  Level Estimated
Fri 08:52:00 AM 63.3081 -1.2237 273° West  Level Estimated
Fri 08:53:00 AM 63.3140 -1.4740 273° West  Level Estimated
Fri 08:54:00 AM 63.3194 -1.7244 273° West  Level Estimated
Fri 08:55:00 AM 63.3244 -1.9749 273° West  Level Estimated
Fri 08:56:00 AM 63.3290 -2.2255 272° West  Level Estimated
Fri 08:57:00 AM 63.3331 -2.4762 272° West  Level Estimated
Fri 08:58:00 AM 63.3368 -2.7269 272° West  Level Estimated
Fri 08:59:00 AM 63.3401 -2.9777 272° West  Level Estimated
Fri 09:00:00 AM 63.3429 -3.2285 272° West  Level Estimated
Fri 09:01:00 AM 63.3452 -3.4794 271° West  Level Estimated
Fri 09:02:00 AM 63.3472 -3.7303 271° West  Level Estimated
Fri 09:03:00 AM 63.3487 -3.9813 271° West  Level Estimated
Fri 09:04:00 AM 63.3497 -4.2323 271° West  Level Estimated
Fri 09:05:00 AM 63.3503 -4.4833 270° West  Level Estimated
Fri 09:06:00 AM 63.3505 -4.7343 270° West  Level Estimated
Fri 09:07:00 AM 63.3502 -4.9852 270° West  Level Estimated
Fri 09:08:00 AM 63.3495 -5.2362 270° West  Level Estimated
Fri 09:09:00 AM 63.3483 -5.4872 270° West  Level Estimated
Fri 09:10:00 AM 63.3467 -5.7382 269° West  Level Estimated
Fri 09:11:00 AM 63.3447 -5.9891 269° West  Level Estimated
Fri 09:12:00 AM 63.3422 -6.2400 269° West  Level Estimated
Fri 09:13:00 AM 63.3393 -6.4908 269° West  Level Estimated
Fri 09:14:00 AM 63.3359 -6.7416 268° West  Level Estimated
Fri 09:15:00 AM 63.3321 -6.9923 268° West  Level Estimated
Fri 09:16:00 AM 63.3279 -7.2429 268° West  Level Estimated
Fri 09:17:00 AM 63.3232 -7.4935 268° West  Level Estimated
Fri 09:18:00 AM 63.3181 -7.7439 268° West  Level Estimated
Fri 09:19:00 AM 63.3125 -7.9943 267° West  Level Estimated
Fri 09:20:00 AM 63.3065 -8.2446 267° West  Level Estimated
Fri 09:21:00 AM 63.3001 -8.4948 267° West  Level Estimated
Fri 09:22:00 AM 63.2932 -8.7449 267° West  Level Estimated
Fri 09:23:00 AM 63.2859 -8.9948 266° West  Level Estimated
Fri 09:24:00 AM 63.2781 -9.2446 266° West  Level Estimated
Fri 09:25:00 AM 63.2699 -9.4943 266° West  Level Estimated
Fri 09:26:00 AM 63.2613 -9.7438 266° West  Level Estimated
Fri 09:27:00 AM 63.2523 -9.9932 265° West  Level Estimated
Fri 09:28:00 AM 63.2428 -10.2424 265° West  Level Estimated
Fri 09:29:00 AM 63.2328 -10.4914 265° West  Level Estimated
Fri 09:30:00 AM 63.2225 -10.7403 265° West  Level Estimated
Fri 09:31:00 AM 63.2117 -10.9890 265° West  Level Estimated
Fri 09:32:00 AM 63.2004 -11.2375 264° West  Level Estimated
Fri 09:33:00 AM 63.1888 -11.4858 264° West  Level Estimated
Fri 09:34:00 AM 63.1767 -11.7339 264° West  Level Estimated
Fri 09:35:00 AM 63.1641 -11.9818 264° West  Level Estimated
Fri 09:36:00 AM 63.1511 -12.2295 263° West  Level Estimated
Fri 09:37:00 AM 63.1377 -12.4769 263° West  Level Estimated
Fri 09:38:00 AM 63.1239 -12.7241 263° West  Level Estimated
Fri 09:39:00 AM 63.1097 -12.9711 263° West  Level Estimated
Fri 09:40:00 AM 63.0950 -13.2178 263° West  Level Estimated
Fri 09:41:00 AM 63.0799 -13.4643 262° West  Level Estimated
Fri 09:42:00 AM 63.0643 -13.7105 262° West  Level Estimated
Fri 09:43:00 AM 63.0484 -13.9564 262° West  Level Estimated
Fri 09:44:00 AM 63.0320 -14.2021 262° West  Level Estimated
Fri 09:45:00 AM 63.0151 -14.4475 262° West  Level Estimated
Fri 09:46:00 AM 62.9979 -14.6926 261° West  Level Estimated
Fri 09:47:00 AM 62.9802 -14.9375 261° West  Level Estimated
Fri 09:48:00 AM 62.9621 -15.1820 261° West  Level Estimated
Fri 09:49:00 AM 62.9436 -15.4262 261° West  Level Estimated
Fri 09:50:00 AM 62.9247 -15.6701 260° West  Level Estimated
Fri 09:51:00 AM 62.9053 -15.9137 260° West  Level Estimated
Fri 09:52:00 AM 62.8856 -16.1569 260° West  Level Estimated
Fri 09:53:00 AM 62.8654 -16.3998 260° West  Level Estimated
Fri 09:54:00 AM 62.8448 -16.6424 260° West  Level Estimated
Fri 09:55:00 AM 62.8237 -16.8847 259° West  Level Estimated
Fri 09:56:00 AM 62.8023 -17.1266 259° West  Level Estimated
Fri 09:57:00 AM 62.7804 -17.3681 259° West  Level Estimated
Fri 09:58:00 AM 62.7582 -17.6093 259° West  Level Estimated
Fri 09:59:00 AM 62.7355 -17.8501 258° West  Level Estimated
Fri 10:00:00 AM 62.7124 -18.0905 258° West  Level Estimated
Fri 10:01:00 AM 62.6889 -18.3306 258° West  Level Estimated
Fri 10:02:00 AM 62.6650 -18.5703 258° West  Level Estimated
Fri 10:03:00 AM 62.6407 -18.8095 258° West  Level Estimated
Fri 10:04:00 AM 62.6160 -19.0484 257° West  Level Estimated
Fri 10:05:00 AM 62.5908 -19.2869 257° West  Level Estimated
Fri 10:06:00 AM 62.5653 -19.5250 257° West  Level Estimated
Fri 10:07:00 AM 62.5393 -19.7627 257° West  Level Estimated
Fri 10:08:00 AM 62.5130 -19.9999 257° West  Level Estimated
Fri 10:09:00 AM 62.4862 -20.2367 256° West  Level Estimated
Fri 10:10:00 AM 62.4591 -20.4732 256° West  Level Estimated
Fri 10:11:00 AM 62.4315 -20.7091 256° West  Level Estimated
Fri 10:12:00 AM 62.4036 -20.9447 256° West  Level Estimated
Fri 10:13:00 AM 62.3752 -21.1797 256° West  Level Estimated
Fri 10:14:00 AM 62.3465 -21.4144 255° West  Level Estimated
Fri 10:15:00 AM 62.3174 -21.6486 255° West  Level Estimated
Fri 10:16:00 AM 62.2878 -21.8823 255° West  Level Estimated
Fri 10:17:00 AM 62.2579 -22.1156 255° West  Level Estimated
Fri 10:18:00 AM 62.2276 -22.3484 254° West  Level Estimated
Fri 10:19:00 AM 62.1969 -22.5807 254° West  Level Estimated
Fri 10:20:00 AM 62.1658 -22.8126 254° West  Level Estimated
Fri 10:21:00 AM 62.1344 -23.0440 254° West  Level Estimated
Fri 10:22:00 AM 62.1025 -23.2749 254° West  Level Estimated
Fri 10:23:00 AM 62.0703 -23.5053 253° West  Level Estimated
Fri 10:24:00 AM 62.0376 -23.7352 253° West  Level Estimated
Fri 10:25:00 AM 62.0046 -23.9646 253° West  Level Estimated
Fri 10:26:00 AM 61.9713 -24.1936 253° West  Level Estimated
Fri 10:27:00 AM 61.9375 -24.4220 253° West  Level Estimated
Fri 10:28:00 AM 61.9034 -24.6499 252° West  Level Estimated
Fri 10:29:00 AM 61.8688 -24.8773 252° West  Level Estimated
Fri 10:30:00 AM 61.8340 -25.1042 252° West  Level Estimated
Fri 10:31:00 AM 61.7987 -25.3306 252° West  Level Estimated
Fri 10:32:00 AM 61.7631 -25.5564 252° West  Level Estimated
Fri 10:33:00 AM 61.7270 -25.7817 251° West  Level Estimated
Fri 10:34:00 AM 61.6907 -26.0065 251° West  Level Estimated
Fri 10:35:00 AM 61.6539 -26.2308 251° West  Level Estimated
Fri 10:36:00 AM 61.6168 -26.4545 251° West  Level Estimated
Fri 10:37:00 AM 61.5793 -26.6777 251° West  Level Estimated
Fri 10:38:00 AM 61.5415 -26.9004 250° West  Level Estimated
Fri 10:39:00 AM 61.5033 -27.1225 250° West  Level Estimated
Fri 10:40:00 AM 61.4647 -27.3440 250° West  Level Estimated
Fri 10:41:00 AM 61.4258 -27.5651 250° West  Level Estimated
Fri 10:42:00 AM 61.3866 -27.7855 250° West  Level Estimated
Fri 10:43:00 AM 61.3469 -28.0054 249° West  Level Estimated
Fri 10:44:00 AM 61.3069 -28.2247 249° West  Level Estimated
Fri 10:45:00 AM 61.2666 -28.4435 249° West  Level Estimated
Fri 10:46:00 AM 61.2259 -28.6617 249° West  Level Estimated
Fri 10:47:00 AM 61.1849 -28.8794 249° West  Level Estimated
Fri 10:48:00 AM 61.1435 -29.0965 249° West  Level Estimated
Fri 10:49:00 AM 61.1018 -29.3130 248° West  Level Estimated
Fri 10:50:00 AM 61.0597 -29.5289 248° West  Level Estimated
Fri 10:51:00 AM 61.0173 -29.7443 248° West  Level Estimated
Fri 10:52:00 AM 60.9745 -29.9591 248° West  Level Estimated
Fri 10:53:00 AM 60.9314 -30.1733 248° West  Level Estimated
Fri 10:54:00 AM 60.8880 -30.3869 247° West  Level Estimated
Fri 10:55:00 AM 60.8442 -30.5999 247° West  Level Estimated
Fri 10:56:00 AM 60.8001 -30.8124 247° West  Level Estimated
Fri 10:57:00 AM 60.7556 -31.0243 247° West  Level Estimated
Fri 10:58:00 AM 60.7108 -31.2355 247° West  Level Estimated
Fri 10:59:00 AM 60.6657 -31.4462 246° West  Level Estimated
Fri 11:00:00 AM 60.6203 -31.6563 246° West  Level Estimated
Fri 11:01:00 AM 60.5745 -31.8659 246° West  Level Estimated
Fri 11:02:00 AM 60.5284 -32.0748 246° West  Level Estimated
Fri 11:03:00 AM 60.4820 -32.2831 246° West  Level Estimated
Fri 11:04:00 AM 60.4352 -32.4908 246° West  Level Estimated
Fri 11:05:00 AM 60.3881 -32.6979 245° Southwest  Level Estimated
Fri 11:06:00 AM 60.3408 -32.9044 245° Southwest  Level Estimated
Fri 11:07:00 AM 60.2930 -33.1104 245° Southwest  Level Estimated
Fri 11:08:00 AM 60.2413 -33.3316 245° Southwest  Level Estimated
Fri 11:09:00 AM 60.1891 -33.5524 245° Southwest  Level Estimated
Fri 11:10:00 AM 60.1365 -33.7724 244° Southwest  Level Estimated
Fri 11:11:00 AM 60.0836 -33.9918 244° Southwest  Level Estimated
Fri 11:12:00 AM 60.0303 -34.2105 244° Southwest  Level Estimated
Fri 11:13:00 AM 59.9766 -34.4284 244° Southwest  Level Estimated
Fri 11:14:00 AM 59.9226 -34.6457 244° Southwest  Level Estimated
Fri 11:15:00 AM 59.8683 -34.8622 244° Southwest  Level Estimated
Fri 11:16:00 AM 59.8135 -35.0780 243° Southwest  Level Estimated
Fri 11:17:00 AM 59.7585 -35.2932 243° Southwest  Level Estimated
Fri 11:18:00 AM 59.7031 -35.5076 243° Southwest  Level Estimated
Fri 11:19:00 AM 59.6473 -35.7213 243° Southwest  Level Estimated
Fri 11:20:00 AM 59.5912 -35.9343 243° Southwest  Level Estimated
Fri 11:21:00 AM 59.5347 -36.1465 242° Southwest  Level Estimated
Fri 11:22:00 AM 59.4779 -36.3581 242° Southwest  Level Estimated
Fri 11:23:00 AM 59.4208 -36.5690 242° Southwest  Level Estimated
Fri 11:24:00 AM 59.3633 -36.7791 242° Southwest  Level Estimated
Fri 11:25:00 AM 59.3055 -36.9885 242° Southwest  Level Estimated
Fri 11:26:00 AM 59.2473 -37.1972 241° Southwest  Level Estimated
Fri 11:27:00 AM 59.1889 -37.4052 241° Southwest  Level Estimated
Fri 11:28:00 AM 59.1300 -37.6125 241° Southwest  Level Estimated
Fri 11:29:00 AM 59.0709 -37.8191 241° Southwest  Level Estimated
Fri 11:30:00 AM 59.0114 -38.0249 241° Southwest  Level Estimated
Fri 11:31:00 AM 58.9516 -38.2301 241° Southwest  Level Estimated
Fri 11:32:00 AM 58.8915 -38.4345 240° Southwest  Level Estimated
Fri 11:33:00 AM 58.8311 -38.6383 240° Southwest  Level Estimated
Fri 11:34:00 AM 58.7703 -38.8413 240° Southwest  Level Estimated
Fri 11:35:00 AM 58.7092 -39.0436 240° Southwest  Level Estimated
Fri 11:36:00 AM 58.6478 -39.2452 240° Southwest  Level Estimated
Fri 11:37:00 AM 58.5861 -39.4460 240° Southwest  Level Estimated
Fri 11:38:00 AM 58.5241 -39.6462 239° Southwest  Level Estimated
Fri 11:39:00 AM 58.4618 -39.8457 239° Southwest  Level Estimated
Fri 11:40:00 AM 58.3991 -40.0444 239° Southwest  Level Estimated
Fri 11:41:00 AM 58.3362 -40.2425 239° Southwest  Level Estimated
Fri 11:42:00 AM 58.2729 -40.4398 239° Southwest  Level Estimated
Fri 11:43:00 AM 58.2094 -40.6365 239° Southwest  Level Estimated
Fri 11:44:00 AM 58.1455 -40.8324 238° Southwest  Level Estimated
Fri 11:45:00 AM 58.0813 -41.0276 238° Southwest  Level Estimated
Fri 11:46:00 AM 58.0169 -41.2222 238° Southwest  Level Estimated
Fri 11:47:00 AM 57.9521 -41.4160 238° Southwest  Level Estimated
Fri 11:48:00 AM 57.8871 -41.6091 238° Southwest  Level Estimated
Fri 11:49:00 AM 57.8218 -41.8016 238° Southwest  Level Estimated
Fri 11:50:00 AM 57.7562 -41.9931 237° Southwest  Level Estimated
Fri 11:51:00 AM 57.6904 -42.1840 237° Southwest  Level Estimated
Fri 11:51:56 AM 63.9000 -57.4833 236° Southwest 440 506 37,000  Level Gander Center
Fri 11:52:00 AM 57.6242 -42.3741 237° Southwest  Level Estimated
Fri 11:52:56 AM 63.8333 -57.6833 233° Southwest 440 506 37,000  Level Gander Center
Fri 11:53:00 AM 57.5578 -42.5636 237° Southwest  Level Estimated
Fri 11:53:56 AM 63.7667 -57.8833 233° Southwest 430 495 37,000  Level Gander Center
Fri 11:54:00 AM 57.4911 -42.7523 237° Southwest  Level Estimated
Fri 11:54:56 AM 63.6833 -58.1167 231° Southwest 430 495 37,000  Level Gander Center
Fri 11:55:00 AM 57.4241 -42.9404 237° Southwest  Level Estimated
Fri 11:55:56 AM 63.6167 -58.3333 235° Southwest 430 495 37,000  Level Gander Center
Fri 11:56:00 AM 57.3569 -43.1278 236° Southwest  Level Estimated
Fri 11:56:56 AM 63.5333 -58.5333 227° Southwest 430 495 37,000  Level Gander Center
Fri 11:57:00 AM 57.2891 -43.3153 236° Southwest  Level Estimated
Fri 11:57:56 AM 63.4833 -58.7333 241° Southwest 430 495 37,000  Level Gander Center
Fri 11:58:56 AM 63.4000 -58.9500 229° Southwest 430 495 37,000  Level Gander Center
Fri 11:59:56 AM 63.3167 -59.1500 227° Southwest 430 495 37,000  Level Gander Center
Fri 12:00:56 PM 63.2333 -59.3667 230° Southwest 430 495 37,000  Level Gander Center
Fri 12:01:56 PM 63.1833 -59.5500 239° Southwest 440 506 37,000  Level Gander Center
Fri 12:02:56 PM 63.1000 -59.7833 232° Southwest 440 506 37,000  Level Gander Center
Fri 12:03:56 PM 63.0167 -60.0000 230° Southwest 440 506 37,000  Level Gander Center
Fri 12:04:56 PM 62.9500 -60.2333 238° Southwest 440 506 37,000  Level Gander Center
Fri 12:05:56 PM 62.8833 -60.4500 236° Southwest 430 495 37,000  Level Gander Center
Fri 12:06:56 PM 62.8167 -60.6667 236° Southwest 430 495 37,000  Level Gander Center
Fri 12:07:56 PM 62.7500 -60.8833 236° Southwest 440 506 37,000  Level Gander Center
Fri 12:08:56 PM 62.6833 -61.1000 236° Southwest 430 495 37,000  Level Gander Center
Fri 12:09:56 PM 62.6167 -61.3167 236° Southwest 440 506 37,000  Level Gander Center
Fri 12:10:56 PM 62.5667 -61.5333 243° Southwest 440 506 37,000  Level Gander Center
Fri 12:11:56 PM 62.4833 -61.7833 234° Southwest 440 506 37,000  Level Gander Center
Fri 12:12:56 PM 62.4167 -62.0000 236° Southwest 440 506 37,000  Level Gander Center
Fri 12:13:56 PM 62.3667 -62.2167 244° Southwest 460 529 37,000  Level Gander Center
Fri 12:14:56 PM 62.2833 -62.4500 233° Southwest 440 506 37,000  Level Gander Center
Fri 12:15:56 PM 62.2167 -62.6667 237° Southwest 430 495 37,000  Level Gander Center
Fri 12:17:30 PM 62.1333 -62.8833 231° Southwest 430 495 37,000  Level Montreal Center
Fri 12:18:30 PM 62.0500 -63.1333 235° Southwest 460 529 37,000  Level Montreal Center
Fri 12:19:30 PM 61.9833 -63.3500 237° Southwest 430 495 37,000  Level Montreal Center
Fri 12:20:30 PM 61.9167 -63.5500 235° Southwest 430 495 37,000  Level Montreal Center
Fri 12:21:30 PM 61.8500 -63.7667 237° Southwest 430 495 37,000  Level Montreal Center
Fri 12:22:30 PM 61.7833 -63.9667 235° Southwest 430 495 37,000  Level Montreal Center
Fri 12:23:30 PM 61.7000 -64.1833 231° Southwest 430 495 37,000  Level Montreal Center
Fri 12:24:30 PM 61.6500 -64.3667 240° Southwest 410 472 37,000  Level Montreal Center
Fri 12:25:30 PM 61.5667 -64.5833 231° Southwest 440 506 37,000  Level Montreal Center
Fri 12:26:30 PM 61.5000 -64.7833 235° Southwest 420 483 37,000  Level Montreal Center
Fri 12:27:31 PM 61.4333 -64.9833 235° Southwest 430 495 37,000  Level Montreal Center
Fri 12:28:31 PM 61.3667 -65.1833 235° Southwest 440 506 37,000  Level Montreal Center
Fri 12:29:31 PM 61.3000 -65.3833 235° Southwest 440 506 37,000  Level Montreal Center
Fri 12:30:31 PM 61.2167 -65.5833 229° Southwest 430 495 37,000  Level Montreal Center
Fri 12:31:31 PM 61.1500 -65.7833 235° Southwest 430 495 37,000  Level Montreal Center
Fri 12:32:31 PM 61.0667 -65.9833 229° Southwest 440 506 37,000  Level Montreal Center
Fri 12:33:31 PM 61.0000 -66.1833 236° Southwest 430 495 37,000  Level Montreal Center
Fri 12:34:31 PM 60.9333 -66.3667 233° Southwest 430 495 37,000  Level Montreal Center
Fri 12:35:31 PM 60.8500 -66.6000 234° Southwest 440 506 37,000  Level Montreal Center
Fri 12:36:31 PM 60.7833 -66.7667 231° Southwest 430 495 37,000  Level Montreal Center
Fri 12:37:31 PM 60.7000 -66.9667 230° Southwest 420 483 37,000  Level Montreal Center
Fri 12:38:31 PM 60.6000 -67.0833 210° Southwest 430 495 37,000  Level Montreal Center
Fri 12:39:31 PM 60.5000 -67.2167 213° Southwest 430 495 37,000  Level Montreal Center
Fri 12:40:31 PM 60.4000 -67.3167 206° Southwest 430 495 37,000  Level Montreal Center
Fri 12:41:31 PM 60.2833 -67.4500 210° Southwest 430 495 37,000  Level Montreal Center
Fri 12:42:31 PM 60.1833 -67.5667 210° Southwest 440 506 37,000  Level Montreal Center
Fri 12:43:31 PM 60.0667 -67.7000 210° Southwest 430 495 37,000  Level Montreal Center
Fri 12:44:31 PM 59.9667 -67.8333 214° Southwest 430 495 37,000  Level Montreal Center
Fri 12:45:31 PM 59.8667 -67.9500 210° Southwest 430 495 37,000  Level Montreal Center
Fri 12:46:31 PM 59.7500 -68.0500 203° Southwest 430 495 37,000  Level Montreal Center
Fri 12:47:31 PM 59.6500 -68.1667 211° Southwest 430 495 37,000  Level Montreal Center
Fri 12:48:31 PM 59.5500 -68.3000 214° Southwest 430 495 37,000  Level Montreal Center
Fri 12:49:31 PM 59.4500 -68.4167 211° Southwest 440 506 37,000  Level Montreal Center
Fri 12:50:31 PM 59.3333 -68.5333 207° Southwest 430 495 37,000  Level Montreal Center
Fri 12:51:31 PM 59.2333 -68.6333 207° Southwest 430 495 37,000  Level Montreal Center
Fri 12:52:31 PM 59.1333 -68.7500 211° Southwest 440 506 37,000  Level Montreal Center
Fri 12:53:31 PM 59.0167 -68.8667 207° Southwest 420 483 37,000  Level Montreal Center
Fri 12:54:31 PM 58.9333 -68.9833 216° Southwest 440 506 37,000  Level Montreal Center
Fri 12:55:31 PM 58.8167 -69.1000 207° Southwest 430 495 37,000  Level Montreal Center
Fri 12:56:31 PM 58.7000 -69.1833 200° South 430 495 37,000  Level Montreal Center
Fri 12:57:31 PM 58.5833 -69.3167 211° Southwest 430 495 37,000  Level Montreal Center
Fri 12:58:31 PM 58.5000 -69.4167 212° Southwest 430 495 37,000  Level Montreal Center
Fri 12:59:31 PM 58.3833 -69.5333 208° Southwest 430 495 37,000  Level Montreal Center
Fri 01:00:31 PM 58.2833 -69.6167 204° Southwest 430 495 37,000  Level Montreal Center
Fri 01:01:31 PM 58.1667 -69.7333 208° Southwest 430 495 37,000  Level Montreal Center
Fri 01:02:31 PM 58.0667 -69.8500 212° Southwest 430 495 37,000  Level Montreal Center
Fri 01:03:31 PM 57.9667 -69.9667 212° Southwest 430 495 37,000  Level Montreal Center
Fri 01:04:31 PM 57.8500 -70.0833 208° Southwest 440 506 37,000  Level Montreal Center
Fri 01:05:31 PM 57.7333 -70.1833 205° Southwest 440 506 37,000  Level Montreal Center
Fri 01:06:31 PM 57.6167 -70.3000 208° Southwest 440 506 37,000  Level Montreal Center
Fri 01:07:31 PM 57.5333 -70.3833 208° Southwest 440 506 37,000  Level Montreal Center
Fri 01:08:31 PM 57.4167 -70.5000 208° Southwest 440 506 37,000  Level Montreal Center
Fri 01:09:31 PM 57.3000 -70.6000 205° Southwest 440 506 37,000  Level Montreal Center
Fri 01:10:31 PM 57.1833 -70.7167 208° Southwest 440 506 37,000  Level Montreal Center
Fri 01:11:31 PM 57.0833 -70.8167 209° Southwest 440 506 37,000  Level Montreal Center
Fri 01:12:31 PM 56.9833 -70.9333 212° Southwest 440 506 37,000  Level Montreal Center
Fri 01:13:31 PM 56.8667 -71.0333 205° Southwest 440 506 37,000 -100 Level Montreal Center
Fri 01:14:31 PM 56.7500 -71.1167 201° Southwest 460 529 36,800 -500 Descending Montreal Center
Fri 01:15:31 PM 56.6333 -71.2167 205° Southwest 440 506 36,000 -400 Descending Montreal Center
Fri 01:16:31 PM 56.5167 -71.3167 205° Southwest 440 506 36,000  Level Montreal Center
Fri 01:17:31 PM 56.4000 -71.4333 209° Southwest 440 506 36,000  Level Montreal Center
Fri 01:19:31 PM 56.2000 -71.6333 209° Southwest 440 506 36,000  Level Montreal Center
Fri 01:20:31 PM 56.0833 -71.7000 198° South 440 506 36,000  Level Montreal Center
Fri 01:21:31 PM 55.9833 -71.8167 213° Southwest 440 506 36,000  Level Montreal Center
Fri 01:22:31 PM 55.8667 -71.9167 206° Southwest 440 506 36,000  Level Montreal Center
Fri 01:23:31 PM 55.7500 -72.0167 206° Southwest 440 506 36,000  Level Montreal Center
Fri 01:24:31 PM 55.6333 -72.1167 206° Southwest 440 506 36,000  Level Montreal Center
Fri 01:25:31 PM 55.5167 -72.2167 206° Southwest 440 506 36,000  Level Montreal Center
Fri 01:26:31 PM 55.4000 -72.3167 206° Southwest 440 506 36,000  Level Montreal Center
Fri 01:27:31 PM 55.3000 -72.4167 210° Southwest 440 506 36,000  Level Montreal Center
Fri 01:28:31 PM 55.2000 -72.4833 201° Southwest 440 506 36,000  Level Montreal Center
Fri 01:29:31 PM 55.0833 -72.5833 206° Southwest 450 518 36,000  Level Montreal Center
Fri 01:30:31 PM 54.9667 -72.6833 206° Southwest 440 506 36,000  Level Montreal Center
Fri 01:31:31 PM 54.8667 -72.7667 206° Southwest 450 518 36,000  Level Montreal Center
Fri 01:32:31 PM 54.7500 -72.8667 206° Southwest 440 506 36,000  Level Montreal Center
Fri 01:33:31 PM 54.6333 -72.9667 206° Southwest 440 506 36,000  Level Montreal Center
Fri 01:34:31 PM 54.5167 -73.0333 198° South 440 506 36,000  Level Montreal Center
Fri 01:35:31 PM 54.4167 -73.1333 210° Southwest 440 506 36,000  Level Montreal Center
Fri 01:36:31 PM 54.3000 -73.2167 203° Southwest 440 506 36,000  Level Montreal Center
Fri 01:37:31 PM 54.1833 -73.3167 207° Southwest 440 506 36,000  Level Montreal Center
Fri 01:38:31 PM 54.0667 -73.4167 207° Southwest 440 506 36,000  Level Montreal Center
Fri 01:39:31 PM 53.9500 -73.5000 203° Southwest 440 506 36,000  Level Montreal Center
Fri 01:40:31 PM 53.8333 -73.6000 207° Southwest 440 506 36,000  Level Montreal Center
Fri 01:41:31 PM 53.7333 -73.6833 206° Southwest 440 506 36,000  Level Montreal Center
Fri 01:42:31 PM 53.6167 -73.7833 207° Southwest 440 506 36,000  Level Montreal Center
Fri 01:43:31 PM 53.5000 -73.8667 203° Southwest 440 506 36,000  Level Montreal Center
Fri 01:44:31 PM 53.4000 -73.9500 206° Southwest 450 518 36,000  Level Montreal Center
Fri 01:45:31 PM 53.2833 -74.0500 207° Southwest 440 506 36,000  Level Montreal Center
Fri 01:46:31 PM 53.1667 -74.1333 203° Southwest 440 506 36,000  Level Montreal Center
Fri 01:47:31 PM 53.0667 -74.2333 211° Southwest 440 506 36,000  Level Montreal Center
Fri 01:48:31 PM 52.9500 -74.3167 203° Southwest 440 506 36,000  Level Montreal Center
Fri 01:49:31 PM 52.8667 -74.4000 211° Southwest 440 506 36,000  Level Montreal Center
Fri 01:50:31 PM 52.7333 -74.5167 208° Southwest 450 518 36,000  Level Montreal Center
Fri 01:51:31 PM 52.6333 -74.6000 207° Southwest 440 506 36,000  Level Montreal Center
Fri 01:52:31 PM 52.5167 -74.7000 208° Southwest 450 518 36,000  Level Montreal Center
Fri 01:53:31 PM 52.3833 -74.7833 201° Southwest 440 506 36,000  Level Montreal Center
Fri 01:54:31 PM 52.2833 -74.8667 207° Southwest 430 495 36,000  Level Montreal Center
Fri 01:55:31 PM 52.1667 -74.9500 204° Southwest 440 506 36,000  Level Montreal Center
Fri 01:56:31 PM 52.0667 -75.0333 207° Southwest 440 506 36,000  Level Montreal Center
Fri 01:57:31 PM 51.9500 -75.1167 204° Southwest 450 518 36,000  Level Montreal Center
Fri 01:58:31 PM 51.8333 -75.2000 204° Southwest 440 506 36,000  Level Montreal Center
Fri 01:59:31 PM 51.7167 -75.3167 212° Southwest 440 506 36,000  Level Montreal Center
Fri 02:00:31 PM 51.6167 -75.4000 207° Southwest 430 495 36,000  Level Montreal Center
Fri 02:01:31 PM 51.5000 -75.4833 204° Southwest 440 506 36,000  Level Montreal Center
Fri 02:02:31 PM 51.4000 -75.5667 207° Southwest 430 495 36,000  Level Montreal Center
Fri 02:03:31 PM 51.2833 -75.6500 204° Southwest 440 506 36,000  Level Montreal Center
Fri 02:04:31 PM 51.1667 -75.7167 200° South 430 495 36,000  Level Montreal Center
Fri 02:05:31 PM 51.0667 -75.8000 208° Southwest 440 506 36,000  Level Montreal Center
Fri 02:06:31 PM 50.9500 -75.8833 204° Southwest 440 506 36,000  Level Montreal Center
Fri 02:07:31 PM 50.8500 -75.9667 208° Southwest 440 506 36,000  Level Montreal Center
Fri 02:08:31 PM 50.7333 -76.0500 204° Southwest 440 506 36,000  Level Montreal Center
Fri 02:09:31 PM 50.6333 -76.1167 203° Southwest 430 495 36,000  Level Montreal Center
Fri 02:10:31 PM 50.5167 -76.2000 204° Southwest 430 495 36,000  Level Montreal Center
Fri 02:11:31 PM 50.4000 -76.2833 204° Southwest 430 495 36,000  Level Montreal Center
Fri 02:12:31 PM 50.3000 -76.3667 208° Southwest 430 495 36,000  Level Montreal Center
Fri 02:13:31 PM 50.1833 -76.4333 200° South 440 506 36,000  Level Montreal Center
Fri 02:14:31 PM 50.0500 -76.5500 209° Southwest 440 506 36,000  Level Montreal Center
Fri 02:15:31 PM 49.9500 -76.6000 198° South 440 506 36,000  Level Montreal Center
Fri 02:16:31 PM 49.8500 -76.6667 203° Southwest 440 506 36,000  Level Montreal Center
Fri 02:17:31 PM 49.7333 -76.7667 209° Southwest 430 495 36,000  Level Montreal Center
Fri 02:18:31 PM 49.6333 -76.8500 208° Southwest 430 495 36,000  Level Montreal Center
Fri 02:19:31 PM 49.5167 -76.9167 200° South 410 472 36,000  Level Montreal Center
Fri 02:20:31 PM 49.4167 -76.9667 198° South 440 506 36,000  Level Montreal Center
Fri 02:21:31 PM 49.3000 -77.0667 209° Southwest 430 495 36,000  Level Montreal Center
Fri 02:22:31 PM 49.2000 -77.1167 198° South 410 472 36,000  Level Montreal Center
Fri 02:23:31 PM 49.0833 -77.2000 205° Southwest 420 483 36,000  Level Montreal Center
Fri 02:24:31 PM 48.9833 -77.2667 204° Southwest 420 483 36,000  Level Montreal Center
Fri 02:25:31 PM 48.8667 -77.3500 205° Southwest 420 483 36,000  Level Montreal Center
Fri 02:26:31 PM 48.7667 -77.4167 204° Southwest 410 472 36,000  Level Montreal Center
Fri 02:27:31 PM 48.6667 -77.5000 209° Southwest 410 472 36,000  Level Montreal Center
Fri 02:28:31 PM 48.5500 -77.5667 201° Southwest 420 483 36,000  Level Montreal Center
Fri 02:29:31 PM 48.4500 -77.6333 204° Southwest 410 472 36,000  Level Montreal Center
Fri 02:30:31 PM 48.3500 -77.7167 209° Southwest 410 472 36,000  Level Montreal Center
Fri 02:31:31 PM 48.2500 -77.7833 204° Southwest 410 472 36,000  Level Montreal Center
Fri 02:32:31 PM 48.1500 -77.8500 204° Southwest 420 483 36,000  Level Montreal Center
Fri 02:33:31 PM 48.0333 -77.9000 196° South 420 483 36,000  Level Montreal Center
Fri 02:34:31 PM 47.9167 -77.9667 201° Southwest 410 472 36,000  Level Montreal Center
Fri 02:35:31 PM 47.8000 -78.0500 206° Southwest 410 472 36,000  Level Montreal Center
Fri 02:36:31 PM 47.7000 -78.0833 193° South 410 472 36,000  Level Montreal Center
Fri 02:37:31 PM 47.6000 -78.1667 209° Southwest 400 460 36,000  Level Montreal Center
Fri 02:38:31 PM 47.5000 -78.2333 204° Southwest 400 460 36,000  Level Montreal Center
Fri 02:39:31 PM 47.4000 -78.2667 193° South 390 449 36,000  Level Montreal Center
Fri 02:40:31 PM 47.3000 -78.3500 209° Southwest 390 449 36,000  Level Montreal Center
Fri 02:41:31 PM 47.2000 -78.3833 193° South 390 449 36,000  Level Montreal Center
Fri 02:42:31 PM 47.0833 -78.4500 201° Southwest 390 449 36,000  Level Montreal Center
Fri 02:43:31 PM 46.9833 -78.5000 199° South 390 449 36,000  Level Montreal Center
Fri 02:44:31 PM 46.8833 -78.5667 205° Southwest 390 449 36,000  Level Montreal Center
Fri 02:45:31 PM 46.7833 -78.6167 199° South 390 449 36,000  Level Montreal Center
Fri 02:46:31 PM 46.6833 -78.6833 205° Southwest 390 449 36,000  Level Montreal Center
Fri 02:47:31 PM 46.5833 -78.7333 199° South 390 449 36,000  Level Montreal Center
Fri 02:53:15 PM 46.0060 -79.0443 199° South 385 443 36,000  Level FlightAware ADS-B
Fri 02:54:31 PM 45.8667 -79.0833 199° South 380 437 36,000  Level Toronto Center
Fri 02:55:31 PM 45.7833 -79.1333 203° Southwest 380 437 36,000  Level Toronto Center
Fri 02:56:31 PM 45.6833 -79.2000 205° Southwest 380 437 36,000  Level Toronto Center
Fri 02:57:31 PM 45.5833 -79.2500 199° South 370 426 36,000  Level Toronto Center
Fri 03:03:44 PM 44.9830 -79.5864 199° South 378 435 36,000  Level FlightAware ADS-B
Fri 03:07:33 PM 44.6099 -79.7791 200° South 377 434 36,000  Level FlightAware ADS-B
Fri 03:09:17 PM 44.4649 -79.8989 211° Southwest 360 414 36,000  Level FlightAware ADS-B
Fri 03:10:46 PM 44.3411 -80.0101 213° Southwest 362 417 36,000  Level FlightAware ADS-B
Fri 03:12:25 PM 44.1967 -80.1394 213° Southwest 363 418 36,000  Level FlightAware ADS-B
Fri 03:13:22 PM 44.1168 -80.2105 213° Southwest 361 415 36,000  Level FlightAware ADS-B
Fri 03:14:06 PM 44.0553 -80.2651 212° Southwest 358 412 36,000  Level FlightAware ADS-B
Fri 03:14:45 PM 44.0157 -80.3001 212° Southwest 358 412 36,000  Level FlightAware ADS-B
Fri 03:15:25 PM 43.9444 -80.3633 213° Southwest 357 411 36,000  Level FlightAware ADS-B
Fri 03:16:04 PM 43.8956 -80.4061 212° Southwest 357 411 36,000  Level FlightAware ADS-B
Fri 03:16:45 PM 43.8369 -80.4579 213° Southwest 358 412 36,000  Level FlightAware ADS-B
Fri 03:17:26 PM 43.7760 -80.5115 212° Southwest 359 413 36,000  Level FlightAware ADS-B
Fri 03:18:03 PM 43.7236 -80.5573 212° Southwest 360 414 36,000  Level FlightAware ADS-B
Fri 03:18:47 PM 43.6631 -80.6103 212° Southwest 358 412 36,000  Level FlightAware ADS-B
Fri 03:19:23 PM 43.6130 -80.6538 212° Southwest 357 411 36,000  Level FlightAware ADS-B
Fri 03:20:06 PM 43.5528 -80.7062 212° Southwest 356 410 36,000  Level FlightAware ADS-B
Fri 03:20:45 PM 43.4982 -80.7534 212° Southwest 355 409 36,000  Level FlightAware ADS-B
Fri 03:21:25 PM 43.4493 -80.7959 212° Southwest 354 407 36,000  Level FlightAware ADS-B
Fri 03:22:05 PM 43.3876 -80.8492 212° Southwest 353 406 36,000  Level FlightAware ADS-B
Fri 03:23:04 PM 43.3060 -80.9195 212° Southwest 354 407 36,000  Level FlightAware ADS-B
Fri 03:23:45 PM 43.2502 -80.9676 212° Southwest 354 407 36,000  Level FlightAware ADS-B
Fri 03:24:23 PM 43.1967 -81.0134 212° Southwest 354 407 36,000  Level FlightAware ADS-B
Fri 03:25:06 PM 43.1375 -81.0640 212° Southwest 354 407 36,000  Level FlightAware ADS-B
Fri 03:25:45 PM 43.0925 -81.1024 212° Southwest 355 409 36,000  Level FlightAware ADS-B
Fri 03:26:25 PM 43.0258 -81.1563 211° Southwest 363 418 36,000  Level FlightAware ADS-B
Fri 03:27:46 PM 42.9005 -81.2339 204° Southwest 370 426 36,000  Level FlightAware ADS-B
Fri 03:28:42 PM 42.8152 -81.2867 204° Southwest 371 427 36,000  Level FlightAware ADS-B
Fri 03:29:26 PM 42.7451 -81.3298 204° Southwest 372 428 36,000  Level FlightAware ADS-B
Fri 03:30:06 PM 42.6891 -81.3643 204° Southwest 372 428 36,000  Level FlightAware ADS-B
Fri 03:30:43 PM 42.6288 -81.4012 204° Southwest 372 428 36,000  Level FlightAware ADS-B
Fri 03:31:22 PM 42.5638 -81.4407 204° Southwest 368 423 36,000  Level FlightAware ADS-B
Fri 03:32:00 PM 42.5224 -81.4659 204° Southwest 366 421 36,000  Level FlightAware ADS-B
Fri 03:33:20 PM 42.3805 -81.5522 204° Southwest 362 417 36,000  Level FlightAware ADS-B
Fri 03:34:28 PM 42.2931 -81.6047 204° Southwest 364 419 36,000  Level Cleveland Center
Fri 03:35:30 PM 42.1844 -81.6700 204° Southwest 364 419 36,000  Level Cleveland Center
Fri 03:42:44 PM 41.5136 -82.0686 196° South 366 421 36,000  Level Cleveland Center
Fri 03:43:46 PM 41.4222 -82.1236 204° Southwest 365 420 36,000  Level Cleveland Center
Fri 03:44:00 PM 41.3519 -82.1489 204° Southwest  Level FlightAware Approximate
Fri 03:44:48 PM 41.3272 -82.1736 202° Southwest 364 419 36,000  Level Cleveland Center
Fri 03:45:00 PM 41.2495 -82.1878 196° South  Level FlightAware Approximate
Fri 03:45:50 PM 41.2236 -82.2089 194° South 381 438 36,000  Level Cleveland Center
Fri 03:46:00 PM 41.1469 -82.2262 196° South  Level FlightAware Approximate
Fri 03:46:52 PM 41.1208 -82.2458 195° South 381 438 36,000  Level Cleveland Center
Fri 03:47:00 PM 41.0443 -82.2645 196° South  Level FlightAware Approximate
Fri 03:47:54 PM 41.0011 -82.2894 195° South 381 438 36,000  Level Cleveland Center
Fri 03:48:00 PM 40.9418 -82.3026 196° South  Level FlightAware Approximate
Fri 03:48:57 PM 40.8983 -82.3258 195° South 381 438 36,000  Level Cleveland Center
Fri 03:49:59 PM 40.7944 -82.3622 195° South 381 438 36,000  Level Cleveland Center
Fri 03:51:01 PM 40.6914 -82.3997 195° South 381 438 36,000  Level Cleveland Center
Fri 03:52:03 PM 40.5883 -82.4344 194° South 381 438 36,000  Level Cleveland Center
Fri 03:53:05 PM 40.4761 -82.4750 195° South 381 438 36,000  Level Cleveland Center
Fri 03:55:09 PM 40.2683 -82.5478 195° South 383 441 36,000  Level Cleveland Center
Fri 04:00:49 PM 39.6201 -82.6244 195° South 409 471 36,000  Level FlightAware ADS-B
Fri 04:01:36 PM 39.5315 -82.6302 183° South 409 471 36,000  Level FlightAware ADS-B
Fri 04:02:17 PM 39.4594 -82.6352 183° South 410 472 36,000  Level FlightAware ADS-B
Fri 04:02:51 PM 39.3913 -82.6397 183° South 409 471 36,000  Level FlightAware ADS-B
Fri 04:03:34 PM 39.3105 -82.6451 183° South 408 470 36,000  Level FlightAware ADS-B
Fri 04:04:06 PM 39.2484 -82.6491 183° South 407 468 36,000  Level FlightAware ADS-B
Fri 04:04:45 PM 39.1738 -82.6541 183° South 409 471 36,000  Level FlightAware ADS-B
Fri 04:05:23 PM 39.1025 -82.6588 183° South 410 472 36,000  Level FlightAware ADS-B
Fri 04:06:04 PM 39.0241 -82.6641 183° South 410 472 36,000  Level FlightAware ADS-B
Fri 04:06:44 PM 38.9496 -82.6689 183° South 409 471 36,000  Level FlightAware ADS-B
Fri 04:07:23 PM 38.8750 -82.6739 183° South 409 471 36,000  Level FlightAware ADS-B
Fri 04:08:03 PM 38.8004 -82.6788 183° South 407 468 36,000  Level FlightAware ADS-B
Fri 04:08:43 PM 38.7412 -82.6826 183° South 405 466 36,000  Level FlightAware ADS-B
Fri 04:09:24 PM 38.6516 -82.6885 183° South 405 466 36,000  Level FlightAware ADS-B
Fri 04:13:09 PM 38.2700 -82.8308 199° South 383 441 36,000  Level Indianapolis Center
Fri 04:13:17 PM 38.2532 -82.8396 197° South 385 443 36,000  Level FlightAware ADS-B
Fri 04:14:11 PM 38.1700 -82.8772 200° South 383 441 36,000  Level Indianapolis Center
Fri 04:14:29 PM 38.1323 -82.8955 200° South 385 443 36,000  Level FlightAware ADS-B
Fri 04:15:04 PM 38.0815 -82.9191 200° South 385 443 36,000  Level FlightAware ADS-B
Fri 04:15:13 PM 38.0706 -82.9244 200° South 380 437 36,000  Level Indianapolis Center
Fri 04:16:15 PM 37.9689 -82.9725 200° South 387 445 36,000  Level Indianapolis Center
Fri 04:17:00 PM 37.8952 -83.0330 199° South  Level FlightAware Approximate
Fri 04:17:17 PM 37.8675 -83.0183 200° South 387 445 36,000  Level Indianapolis Center
Fri 04:18:00 PM 37.7946 -83.0762 199° South  Level FlightAware Approximate
Fri 04:18:19 PM 37.7472 -83.0731 200° South 393 452 36,000  Level Indianapolis Center
Fri 04:19:21 PM 37.6456 -83.1186 200° South 389 448 36,000  Level Indianapolis Center
Fri 04:20:23 PM 37.5447 -83.1667 201° Southwest 387 445 36,000  Level Indianapolis Center
Fri 04:21:25 PM 37.4417 -83.2128 200° South 392 451 36,000  Level Indianapolis Center
Fri 04:22:27 PM 37.3381 -83.2600 200° South 397 457 36,000  Level Indianapolis Center
Fri 04:23:29 PM 37.2344 -83.3064 200° South 396 456 36,000  Level Indianapolis Center
Fri 04:24:31 PM 37.1142 -83.3617 200° South 398 458 36,000  Level Indianapolis Center
Fri 04:25:33 PM 37.0100 -83.4072 199° South 398 458 36,000  Level Indianapolis Center
Fri 04:26:35 PM 36.9053 -83.4539 200° South 401 461 36,000  Level Indianapolis Center
Fri 04:27:37 PM 36.7997 -83.5017 200° South 406 467 36,000  Level Indianapolis Center
Fri 04:33:42 PM 36.1353 -83.7969 191° South 418 481 36,000  Level Atlanta Center
Fri 04:34:42 PM 36.0144 -83.8489 199° South 423 487 36,000  Level Atlanta Center
Fri 04:35:42 PM 35.9039 -83.8978 200° South 429 494 36,000  Level Atlanta Center
Fri 04:36:00 PM 35.9670 -83.8562 198° South  Level FlightAware Approximate
Fri 04:37:00 PM 35.8651 -83.8921 191° South  Level FlightAware Approximate
Fri 04:38:00 PM 35.7611 -83.9180 191° South  Level FlightAware Approximate
Fri 04:39:00 PM 35.6571 -83.9439 191° South  Level FlightAware Approximate
Fri 04:41:41 PM 35.1836 -84.0693 200° South 439 505 36,000  Level FlightAware ADS-B (KDZJ)
Fri 04:42:24 PM 35.0977 -84.0899 191° South 439 505 36,000  Level FlightAware ADS-B (KDZJ)
Fri 04:43:04 PM 35.0183 -84.1089 191° South 439 505 36,000  Level FlightAware ADS-B (KDZJ)
Fri 04:43:45 PM 34.9371 -84.1283 191° South 441 507 36,000  Level FlightAware ADS-B (KDZJ)
Fri 04:50:42 PM 34.1069 -84.3272 191° South 452 520 36,000  Level Atlanta Center
Fri 04:51:00 PM 34.1799 -84.3040 189° South  Level FlightAware Approximate
Fri 04:51:42 PM 33.9900 -84.3544 191° South 452 520 36,000  Level Atlanta Center
Fri 04:52:00 PM 34.0749 -84.3250 189° South  Level FlightAware Approximate
Fri 04:52:42 PM 33.8669 -84.3814 190° South 447 514 36,000  Level Atlanta Center
Fri 04:53:00 PM 33.9704 -84.3485 191° South  Level FlightAware Approximate
Fri 04:53:42 PM 33.7456 -84.4111 192° South 453 521 36,000  Level Atlanta Center
Fri 04:54:00 PM 33.8661 -84.3736 191° South  Level FlightAware Approximate
Fri 04:54:42 PM 33.6203 -84.4356 189° South 448 516 36,000  Level Atlanta Center
Fri 04:55:00 PM 33.7618 -84.3986 191° South  Level FlightAware Approximate
Fri 04:55:42 PM 33.5056 -84.4325 179° South 453 521 36,000  Level Atlanta Center
Fri 04:56:00 PM 33.6575 -84.4236 191° South  Level FlightAware Approximate
Fri 04:56:42 PM 33.3700 -84.4319 180° South 453 521 36,000  Level Atlanta Center
Fri 04:57:42 PM 33.2425 -84.4311 180° South 459 528 36,000  Level Atlanta Center
Fri 04:58:42 PM 33.1131 -84.4258 178° South 459 528 36,000  Level Atlanta Center
Fri 04:59:42 PM 32.9881 -84.4253 180° South 459 528 36,000  Level Atlanta Center
Fri 05:00:42 PM 32.8586 -84.4197 178° South 464 534 36,000  Level Atlanta Center
Fri 05:01:42 PM 32.7458 -84.4167 179° South 457 526 36,000 -300 Level Atlanta Center
Fri 05:02:42 PM 32.6186 -84.4161 180° South 457 526 35,400 -500 Descending Atlanta Center
Fri 05:03:42 PM 32.4892 -84.4131 179° South 463 533 35,000 -114 Descending Atlanta Center
Fri 05:06:12 PM 32.1511 -84.4067 179° South 462 532 35,000  Level Jacksonville Center
Fri 05:07:12 PM 32.0219 -84.4044 179° South 462 532 35,000  Level Jacksonville Center
Fri 05:08:12 PM 31.8925 -84.4000 178° South 462 532 35,000  Level Jacksonville Center
Fri 05:09:12 PM 31.7608 -84.3978 179° South 462 532 35,000  Level Jacksonville Center
Fri 05:10:12 PM 31.6361 -84.3469 161° South 467 537 35,000  Level Jacksonville Center
Fri 05:15:27 PM 30.9756 -84.0512 161° South 478 550 35,000  Level FlightAware ADS-B (KONZ)
Fri 05:16:10 PM 30.8882 -84.0132 160° South 476 548 35,000  Level FlightAware ADS-B (KONZ)
Fri 05:16:49 PM 30.8092 -83.9788 159° South 477 549 35,000  Level FlightAware ADS-B (KONZ)
Fri 05:17:30 PM 30.7243 -83.9419 160° South 478 550 35,000  Level FlightAware ADS-B (KONZ)
Fri 05:18:09 PM 30.6436 -83.9070 160° South 476 548 35,000  Level FlightAware ADS-B (KONZ)
Fri 05:18:48 PM 30.5609 -83.8712 160° South 476 548 35,000  Level FlightAware ADS-B (KONZ)
Fri 05:19:29 PM 30.4776 -83.8353 160° South 475 547 35,000  Level FlightAware ADS-B (KONZ)
Fri 05:20:10 PM 30.3927 -83.7988 160° South 476 548 35,000  Level FlightAware ADS-B (KONZ)
Fri 05:20:49 PM 30.3122 -83.7642 160° South 478 550 35,000  Level FlightAware ADS-B (KONZ)
Fri 05:21:59 PM 30.1780 -83.7066 160° South 483 556 35,000  Level FlightAware ADS-B (KONZ)
Fri 05:22:41 PM 30.0801 -83.6645 160° South 481 554 35,000  Level FlightAware ADS-B (KONZ)
Fri 05:23:12 PM 30.0222 -83.6411 160° South 478 550 35,000  Level Jacksonville Center
Fri 05:24:12 PM 29.8931 -83.5897 161° South 485 558 35,000  Level Jacksonville Center
Fri 05:25:12 PM 29.7681 -83.5361 160° South 485 558 35,000  Level Jacksonville Center
Fri 05:26:12 PM 29.6389 -83.4803 159° South 485 558 35,000  Level Jacksonville Center
Fri 05:27:12 PM 29.5139 -83.4247 159° South 485 558 35,000  Level Jacksonville Center
Fri 05:28:12 PM 29.3847 -83.3717 160° South 485 558 35,000  Level Jacksonville Center
Fri 05:34:01 PM 28.6377 -83.0574 160° South 483 556 35,000  Level FlightAware ADS-B
Fri 05:34:37 PM 28.5629 -83.0264 160° South 483 556 35,000 175 Level FlightAware ADS-B
Fri 05:35:44 PM 28.4218 -82.9681 160° South 483 556 35,300 1,009 Climbing FlightAware ADS-B
Fri 05:36:24 PM 28.3385 -82.9337 160° South 466 536 36,800 1,010 Climbing FlightAware ADS-B
Fri 05:37:25 PM 28.2155 -82.8831 160° South 464 534 37,000 61 Climbing FlightAware ADS-B
Fri 05:39:42 PM 27.9408 -82.7705 160° South 464 534 37,000  Level FlightAware ADS-B
Fri 05:40:45 PM 27.8128 -82.7181 160° South 465 535 37,000  Level FlightAware ADS-B
Fri 05:41:26 PM 27.7579 -82.6958 160° South 466 536 37,000  Level FlightAware ADS-B
Fri 05:42:05 PM 27.6509 -82.6522 160° South 467 537 37,000  Level FlightAware ADS-B
Fri 05:42:46 PM 27.5674 -82.6183 160° South 467 537 37,000  Level FlightAware ADS-B
Fri 05:43:16 PM 27.5065 -82.5936 160° South 464 534 37,000  Level FlightAware ADS-B
Fri 05:44:32 PM 27.3581 -82.5358 160° South 462 532 37,000  Level Miami Center
Fri 05:45:32 PM 27.2392 -82.4833 159° South 461 531 37,000  Level Miami Center
Fri 05:51:26 PM 26.5227 -82.1984 159° South 463 533 37,000  Level FlightAware ADS-B
Fri 05:52:04 PM 26.4492 -82.1692 160° South 466 536 37,000  Level FlightAware ADS-B
Fri 05:52:46 PM 26.3598 -82.1337 160° South 469 540 37,000  Level FlightAware ADS-B
Fri 05:53:26 PM 26.2784 -82.1014 160° South 469 540 37,000  Level FlightAware ADS-B
Fri 05:54:07 PM 26.1936 -82.0678 160° South 465 535 37,000  Level FlightAware ADS-B
Fri 05:54:32 PM 26.1675 -82.0575 161° South 455 524 37,000  Level Miami Center
Fri 05:55:32 PM 26.0461 -82.0106 161° South 455 524 37,000  Level Miami Center
Fri 05:56:00 PM 26.0054 -81.9906 160° South  Level FlightAware Approximate
Fri 05:56:32 PM 25.9100 -81.9564 160° South 468 539 37,000  Level Miami Center
Fri 05:57:00 PM 25.9055 -81.9498 160° South  Level FlightAware Approximate
Fri 05:57:32 PM 25.7886 -81.9097 161° South 468 539 37,000  Level Miami Center
Fri 05:58:00 PM 25.8055 -81.9090 160° South  Level FlightAware Approximate
Fri 05:58:32 PM 25.6650 -81.8606 160° South 468 539 37,000  Level Miami Center
Fri 05:59:00 PM 25.7050 -81.8699 161° South  Level FlightAware Approximate
Fri 05:59:32 PM 25.5433 -81.8142 161° South 468 539 37,000  Level Miami Center
Fri 06:00:32 PM 25.4217 -81.7656 160° South 468 539 37,000  Level Miami Center
Fri 06:01:32 PM 25.3117 -81.7450 170° South 454 522 37,000  Level Miami Center
Fri 06:02:32 PM 25.2056 -81.7958 203° Southwest 410 472 37,000  Level Miami Center
Fri 06:03:32 PM 25.1056 -81.8583 210° Southwest 403 464 37,000  Level Miami Center
Fri 06:04:32 PM 25.0031 -81.9206 209° Southwest 408 470 37,000 -400 Level Miami Center
Fri 06:05:32 PM 24.9169 -81.9994 220° Southwest 419 482 36,200 -1,150 Descending Miami Center
Fri 06:06:32 PM 24.8428 -82.0903 228° Southwest 401 461 34,700 -1,500 Descending Miami Center
Fri 06:07:32 PM 24.7664 -82.1761 226° Southwest 401 461 33,200 -1,500 Descending Miami Center
Fri 06:08:32 PM 24.6786 -82.2431 215° Southwest 395 455 31,700 -1,500 Descending Miami Center
Fri 06:09:32 PM 24.5725 -82.2842 199° South 395 455 30,200 -1,500 Descending Miami Center
Fri 06:10:32 PM 24.4708 -82.3278 201° Southwest 395 455 28,700 -1,500 Descending Miami Center
Fri 06:11:32 PM 24.3628 -82.3686 199° South 402 463 27,200 -1,500 Descending Miami Center
Fri 06:12:32 PM 24.2672 -82.4097 201° Southwest 395 455 25,700 -1,550 Descending Miami Center
Fri 06:13:32 PM 24.1697 -82.4511 201° Southwest 390 449 24,100 -1,550 Descending Miami Center
Fri 06:14:32 PM 24.0764 -82.4900 201° Southwest 376 433 22,600 -1,450 Descending Miami Center
Fri 06:15:32 PM 23.9856 -82.5200 197° South 359 413 21,200 -1,400 Descending Miami Center
Fri 06:16:32 PM 23.8892 -82.5294 185° South 353 406 19,800 -1,400 Descending Miami Center
Fri 06:18:00 PM 23.7170 -82.5063 173° South  Level Estimated
Fri 06:25:00 PM 22.9891 -82.4091 173° South  Level Estimated
Fri 06:26:00 PM 22.9891 -82.4091 51° Northeast  Level Estimated
Fri 06:27:00 PM 22.9891 -82.4091 51° Northeast  Level Estimated
Fri 06:28:00 PM 22.9891 -82.4091 51° Northeast  Level Estimated
Fri 06:29:00 PM 22.9891 -82.4091 51° Northeast  Level Estimated
Fri 06:30:00 PM 22.9891 -82.4091 51° Northeast  Level Estimated
Fri 06:31:00 PM 22.9891 -82.4091 51° Northeast  Level Estimated
Fri 06:32:00 PM 22.9891 -82.4091 51° Northeast  Level Estimated
Fri 06:33:00 PM 22.9891 -82.4091 51° Northeast  Level Estimated
Fri 06:34:00 PM 22.9891 -82.4091 51° Northeast  Level Estimated
Fri 06:35:00 PM 22.9891 -82.4091 51° Northeast  Level Estimated
Fri 06:36:00 PM 22.9891 -82.4091 51° Northeast  Level Estimated
Fri 06:37:00 PM 22.9891 -82.4091 51° Northeast  Level Estimated
Fri 06:38:00 PM 22.9891 -82.4091 51° Northeast  Level Estimated
Fri 06:39:00 PM 22.9891 -82.4091 51° Northeast  Level Estimated
Fri 06:40:00 PM 22.9891 -82.4091 51° Northeast  Level Estimated
Fri 06:41:00 PM 22.9891 -82.4091 51° Northeast  Level Estimated
Fri 06:42:00 PM 22.9891 -82.4091 51° Northeast  Level Estimated
Fri 06:43:00 PM 22.9891 -82.4091 51° Northeast  Level Estimated
Fri 06:44:00 PM 22.9891 -82.4091 51° Northeast  Level Estimated
Fri 06:45:00 PM 22.9891 -82.4091 51° Northeast  Level Estimated
Fri 06:46:00 PM 22.9891 -82.4091 51° Northeast  Level Estimated
Fri 06:47:00 PM 22.9891 -82.4091 51° Northeast  Level Estimated
Fri 06:48:00 PM 22.9891 -82.4091 51° Northeast  Level Estimated
Fri 06:49:00 PM 22.9891 -82.4091 51° Northeast  Level Estimated
Fri 06:50:00 PM 22.9891 -82.4091 51° Northeast  Level Estimated
Fri 06:51:00 PM 22.9891 -82.4091 51° Northeast  Level Estimated
Fri 06:52:00 PM 22.9891 -82.4091 51° Northeast  Level Estimated
Fri 06:53:00 PM 22.9891 -82.4091 51° Northeast  Level Estimated
Fri 06:54:00 PM 22.9891 -82.4091 51° Northeast  Level Estimated
Fri 06:55:00 PM 22.9891 -82.4091 51° Northeast  Level Estimated
Fri 06:56:00 PM 22.9891 -82.4091 51° Northeast  Level Estimated
Fri 06:57:00 PM 22.9891 -82.4091 51° Northeast  Level Estimated
Fri 06:58:00 PM 22.9891 -82.4091 51° Northeast  Level Estimated
Fri 06:59:00 PM 22.9891 -82.4091 51° Northeast  Level Estimated

Login

Don't have an account? Register now (free) for customized features, flight alerts, and more!